BJY weather

Batajnica Air Base
Batajnica, Srem, Serbia

Public forecast

Using degrees Celsius for public forecast. Weather courtesy of forecast.io.

Current aviation weather report (METAR) for Batajnica Air Base

Retrieved 2020/02/28 10:00 UTC (15 minutes ago):

LYBT 281000Z 28018KT 9999 FEW025 SCT040 05/01 Q1009 BECMG 32035KT

Aviation forecast (TAF) for Batajnica Air Base

Retrieved 2020/02/28 06:00 UTC (4 hours ago):

TAF LYBT 280500Z 2806/2906 14008KT 9999 SCT012 BKN033 TX06/2813Z TNM03/2905Z BECMG 2808/2810 30020KT PROB40 TEMPO 2812/2816 3000 SHSN SCT010 SCT027TCU BKN033 BECMG 2819/2821 30008KT TEMPO 2903/2906 3000 BR